createdAt,value
2022-11-21T00:00:50.038Z,11.98
2022-11-21T00:03:17.116Z,11.52
2022-11-21T00:05:46.278Z,12.55
2022-11-21T00:08:15.540Z,12.23
2022-11-21T00:10:43.003Z,12.27
2022-11-21T00:13:15.165Z,13.27
2022-11-21T00:15:41.815Z,12.98
2022-11-21T00:18:08.499Z,14.18
2022-11-21T00:20:37.004Z,14.77
2022-11-21T00:23:03.828Z,16.15
2022-11-21T00:25:30.912Z,14.43
2022-11-21T00:27:57.721Z,13.68
2022-11-21T00:30:24.667Z,14.75
2022-11-21T00:32:51.376Z,13.18
2022-11-21T00:35:18.176Z,12.85
2022-11-21T00:37:44.858Z,12.27
2022-11-21T00:40:12.852Z,11.90
2022-11-21T00:42:39.542Z,11.98
2022-11-21T00:45:06.610Z,12.45
2022-11-21T00:47:33.296Z,13.20
2022-11-21T00:49:59.925Z,13.45
2022-11-21T00:52:26.642Z,13.43
2022-11-21T00:54:53.288Z,12.30
2022-11-21T00:57:19.895Z,14.80
2022-11-21T00:59:46.490Z,12.80
2022-11-21T01:02:13.857Z,13.48
2022-11-21T01:04:40.739Z,14.15
2022-11-21T01:07:07.583Z,15.05
2022-11-21T01:09:34.291Z,13.48
2022-11-21T01:12:00.914Z,14.77
2022-11-21T01:14:28.018Z,14.57
2022-11-21T01:16:54.831Z,14.02
2022-11-21T01:19:21.437Z,15.25
2022-11-21T01:21:48.052Z,13.90
2022-11-21T01:24:14.748Z,12.90
2022-11-21T01:26:41.379Z,14.25
2022-11-21T01:29:08.788Z,13.40
2022-11-21T01:31:35.908Z,13.20
2022-11-21T01:34:02.743Z,14.85
2022-11-21T01:36:32.217Z,14.23
2022-11-21T01:39:05.131Z,14.05
2022-11-21T01:41:36.113Z,14.73
2022-11-21T01:44:10.061Z,12.75
2022-11-21T01:46:36.713Z,14.63
2022-11-21T01:49:15.416Z,14.63
2022-11-21T01:51:51.555Z,14.57
2022-11-21T01:54:24.299Z,13.35
2022-11-21T01:56:56.386Z,13.48
2022-11-21T01:59:29.519Z,12.20
2022-11-21T02:01:57.824Z,13.05
2022-11-21T02:04:28.585Z,13.32
2022-11-21T02:06:55.434Z,13.45
2022-11-21T02:09:23.488Z,13.32
2022-11-21T02:11:55.356Z,13.55
2022-11-21T02:14:22.112Z,13.07
2022-11-21T02:16:49.636Z,13.98
2022-11-21T02:19:38.782Z,13.48
2022-11-21T02:22:09.488Z,13.02
2022-11-21T02:24:44.658Z,13.68
2022-11-21T02:27:11.562Z,11.98
2022-11-21T02:29:40.080Z,13.93
2022-11-21T02:32:06.843Z,14.15
2022-11-21T02:34:33.955Z,13.98
2022-11-21T02:37:02.082Z,13.60
2022-11-21T02:39:37.377Z,14.13
2022-11-21T02:42:09.597Z,12.80
2022-11-21T02:44:47.077Z,13.18
2022-11-21T02:47:13.727Z,12.65
2022-11-21T02:49:55.268Z,12.45
2022-11-21T02:52:22.189Z,13.07
2022-11-21T02:54:48.823Z,13.70
2022-11-21T02:57:15.465Z,13.00
2022-11-21T02:59:42.037Z,12.98
2022-11-21T03:02:08.683Z,13.07
2022-11-21T03:04:35.277Z,13.43
2022-11-21T03:07:01.970Z,13.73
2022-11-21T03:09:28.648Z,12.32
2022-11-21T03:11:55.282Z,13.90
2022-11-21T03:14:21.883Z,13.27
2022-11-21T03:16:48.481Z,14.30
2022-11-21T03:19:15.102Z,13.07
2022-11-21T03:21:41.706Z,13.73
2022-11-21T03:24:08.493Z,13.55
2022-11-21T03:26:35.132Z,14.25
2022-11-21T03:29:01.837Z,15.70
2022-11-21T03:31:28.482Z,15.70
2022-11-21T03:33:55.132Z,14.23
2022-11-21T03:36:21.768Z,13.70
2022-11-21T03:38:48.350Z,14.15
2022-11-21T03:41:30.027Z,14.38
2022-11-21T03:44:02.054Z,14.48
2022-11-21T03:46:30.746Z,14.68
2022-11-21T03:48:57.536Z,14.05
2022-11-21T03:51:24.591Z,13.55
2022-11-21T03:53:51.288Z,13.55
2022-11-21T03:56:18.180Z,14.20
2022-11-21T03:58:45.071Z,14.77
2022-11-21T04:01:15.637Z,13.13
2022-11-21T04:03:43.133Z,13.15
2022-11-21T04:06:11.131Z,13.77
2022-11-21T04:08:38.099Z,13.68
2022-11-21T04:11:05.175Z,12.75
2022-11-21T04:13:31.948Z,15.02
2022-11-21T04:15:58.731Z,14.48
2022-11-21T04:18:25.520Z,13.75
2022-11-21T04:21:04.660Z,14.23
2022-11-21T04:23:31.510Z,14.05
2022-11-21T04:25:58.166Z,13.40
2022-11-21T04:28:24.840Z,13.88
2022-11-21T04:30:54.725Z,15.23
2022-11-21T04:33:21.741Z,14.23
2022-11-21T04:35:48.445Z,13.50
2022-11-21T04:38:15.402Z,15.25
2022-11-21T04:40:44.104Z,15.13
2022-11-21T04:43:10.814Z,14.48
2022-11-21T04:45:37.426Z,15.85
2022-11-21T04:48:04.064Z,15.48
2022-11-21T04:50:30.670Z,15.48
2022-11-21T04:52:57.858Z,15.18
2022-11-21T04:55:29.981Z,15.45
2022-11-21T04:57:56.678Z,16.55
2022-11-21T05:00:24.581Z,15.63
2022-11-21T05:02:51.810Z,14.43
2022-11-21T05:05:18.440Z,16.17
2022-11-21T05:07:45.083Z,15.18
2022-11-21T05:10:11.875Z,14.55
2022-11-21T05:12:56.880Z,15.60
2022-11-21T05:15:25.093Z,14.55
2022-11-21T05:17:52.149Z,15.18
2022-11-21T05:20:18.963Z,16.42
2022-11-21T05:22:49.871Z,15.82
2022-11-21T05:25:16.738Z,16.73
2022-11-21T05:27:43.476Z,17.20
2022-11-21T05:30:11.266Z,16.42
2022-11-21T05:32:37.901Z,14.23
2022-11-21T05:35:05.094Z,15.85
2022-11-21T05:37:31.723Z,15.13
2022-11-21T05:39:58.634Z,14.82
2022-11-21T05:42:44.141Z,17.60
2022-11-21T05:45:10.961Z,15.85
2022-11-21T05:47:37.666Z,15.95
2022-11-21T05:50:05.096Z,15.95
2022-11-21T05:52:31.719Z,16.85
2022-11-21T05:54:58.408Z,17.02
2022-11-21T05:57:25.170Z,17.08
2022-11-21T05:59:51.844Z,18.70
2022-11-21T06:02:37.069Z,21.45
2022-11-21T06:05:03.952Z,19.40
2022-11-21T06:07:30.607Z,22.05
2022-11-21T06:09:57.280Z,20.38
2022-11-21T06:12:25.597Z,23.08
2022-11-21T06:14:52.614Z,22.35
2022-11-21T06:17:19.362Z,21.55
2022-11-21T06:19:46.199Z,18.67
2022-11-21T06:22:12.886Z,17.60
2022-11-21T06:24:39.461Z,16.58
2022-11-21T06:27:06.105Z,16.30
2022-11-21T06:29:32.770Z,16.55
2022-11-21T06:31:59.419Z,14.32
2022-11-21T06:34:27.272Z,15.52
2022-11-21T06:36:54.283Z,15.85
2022-11-21T06:39:20.909Z,15.57
2022-11-21T06:41:51.122Z,17.33
2022-11-21T06:44:21.005Z,16.50
2022-11-21T06:46:51.156Z,16.48
2022-11-21T06:49:18.553Z,15.48
2022-11-21T06:51:45.149Z,14.73
2022-11-21T06:54:16.471Z,15.35
2022-11-21T06:56:43.801Z,14.82
2022-11-21T06:59:10.709Z,13.95
2022-11-21T07:01:37.459Z,17.13
2022-11-21T07:04:04.444Z,15.90
2022-11-21T07:06:31.049Z,15.52
2022-11-21T07:09:31.038Z,15.43
2022-11-21T07:11:44.539Z,13.45
2022-11-21T07:14:11.176Z,14.85
2022-11-21T07:16:38.292Z,14.15
2022-11-21T07:19:04.944Z,14.95
2022-11-21T07:21:31.586Z,15.25
2022-11-21T07:23:58.455Z,15.50
2022-11-21T07:26:25.077Z,14.93
2022-11-21T07:28:51.789Z,16.08
2022-11-21T07:31:18.452Z,16.38
2022-11-21T07:33:46.597Z,16.48
2022-11-21T07:36:13.599Z,14.77
2022-11-21T07:38:41.440Z,15.27
2022-11-21T07:41:09.096Z,16.20
2022-11-21T07:43:35.758Z,17.15
2022-11-21T07:46:02.423Z,15.20
2022-11-21T07:48:29.047Z,17.30
2022-11-21T07:50:55.730Z,15.93
2022-11-21T07:53:22.358Z,15.48
2022-11-21T07:55:49.010Z,17.20
2022-11-21T07:58:17.126Z,15.15
2022-11-21T08:00:43.889Z,16.75
2022-11-21T08:03:12.348Z,16.08
2022-11-21T08:05:41.532Z,16.15
2022-11-21T08:08:09.799Z,17.02
2022-11-21T08:10:44.458Z,15.32
2022-11-21T08:13:12.244Z,14.80
2022-11-21T08:15:39.090Z,15.50
2022-11-21T08:18:19.040Z,16.35
2022-11-21T08:20:45.821Z,17.52
2022-11-21T08:23:12.886Z,17.13
2022-11-21T08:25:41.349Z,16.35
2022-11-21T08:28:09.868Z,17.08
2022-11-21T08:30:37.468Z,17.02
2022-11-21T08:33:04.508Z,16.42
2022-11-21T08:35:31.222Z,16.95
2022-11-21T08:37:59.582Z,17.42
2022-11-21T08:40:27.449Z,17.77
2022-11-21T08:43:04.924Z,16.70
2022-11-21T08:45:33.428Z,17.10
2022-11-21T08:48:00.273Z,17.17
2022-11-21T08:50:28.041Z,18.15
2022-11-21T08:53:01.208Z,16.75
2022-11-21T08:55:28.610Z,15.05
2022-11-21T08:57:55.357Z,15.70
2022-11-21T09:00:22.097Z,16.77
2022-11-21T09:02:48.703Z,17.67
2022-11-21T09:05:15.374Z,17.05
2022-11-21T09:07:42.079Z,16.50
2022-11-21T09:10:09.392Z,16.17
2022-11-21T09:12:36.030Z,17.00
2022-11-21T09:15:32.139Z,19.33
2022-11-21T09:18:06.433Z,16.98
2022-11-21T09:20:37.826Z,17.02
2022-11-21T09:23:05.868Z,16.70
2022-11-21T09:25:32.793Z,17.63
2022-11-21T09:28:01.024Z,18.55
2022-11-21T09:30:27.747Z,18.23
2022-11-21T09:32:54.352Z,19.70
2022-11-21T09:35:21.037Z,17.92
2022-11-21T09:37:47.695Z,17.45
2022-11-21T09:40:18.464Z,18.27
2022-11-21T09:43:05.802Z,17.27
2022-11-21T09:45:49.360Z,19.00
2022-11-21T09:48:35.591Z,20.55
2022-11-21T09:51:07.457Z,23.08
2022-11-21T09:53:54.019Z,19.50
2022-11-21T09:56:23.651Z,20.52
2022-11-21T09:58:56.364Z,18.38
2022-11-21T10:01:23.132Z,19.33
2022-11-21T10:03:54.627Z,20.27
2022-11-21T10:06:25.952Z,19.58
2022-11-21T10:09:18.169Z,19.42
2022-11-21T10:12:18.958Z,22.98
2022-11-21T10:14:51.752Z,22.90
2022-11-21T10:17:49.488Z,21.00
2022-11-21T10:20:36.175Z,21.08
2022-11-21T10:23:14.125Z,20.88
2022-11-21T10:25:47.213Z,20.67
2022-11-21T10:28:19.951Z,21.58
2022-11-21T10:30:49.752Z,20.95
2022-11-21T10:33:30.723Z,22.35
2022-11-21T10:36:02.731Z,21.90
2022-11-21T10:38:29.533Z,20.75
2022-11-21T10:41:07.405Z,19.88
2022-11-21T10:44:10.142Z,19.08
2022-11-21T10:46:36.723Z,19.60
2022-11-21T10:49:04.495Z,19.30
2022-11-21T10:51:58.820Z,20.02
2022-11-21T10:54:34.339Z,19.10
2022-11-21T10:57:16.938Z,18.98
2022-11-21T11:00:01.074Z,18.95
2022-11-21T11:02:28.390Z,20.23
2022-11-21T11:05:16.805Z,19.27
2022-11-21T11:08:03.774Z,18.85
2022-11-21T11:10:32.104Z,19.45
2022-11-21T11:13:44.750Z,19.58
2022-11-21T11:16:10.438Z,16.65
2022-11-21T11:19:15.301Z,18.73
2022-11-21T11:21:44.324Z,19.58
2022-11-21T11:24:13.635Z,20.90
2022-11-21T11:26:49.651Z,20.70
2022-11-21T11:29:20.960Z,19.10
2022-11-21T11:31:59.210Z,18.98
2022-11-21T11:34:39.089Z,19.55
2022-11-21T11:37:29.975Z,19.13
2022-11-21T11:40:14.586Z,20.25
2022-11-21T11:43:37.927Z,19.33
2022-11-21T11:46:51.460Z,19.80
2022-11-21T11:50:11.207Z,20.40
2022-11-21T11:53:16.828Z,25.77
2022-11-21T11:56:02.476Z,20.45
2022-11-21T11:58:36.758Z,20.65
2022-11-21T12:01:03.369Z,21.77
2022-11-21T12:03:52.083Z,21.48
2022-11-21T12:07:04.053Z,19.92
2022-11-21T12:09:28.261Z,21.70
2022-11-21T12:12:09.256Z,20.83
2022-11-21T12:15:04.507Z,22.05
2022-11-21T12:17:41.467Z,22.67
2022-11-21T12:20:17.672Z,23.40
2022-11-21T12:22:47.144Z,22.65
2022-11-21T12:25:14.462Z,21.38
2022-11-21T12:27:42.616Z,22.80
2022-11-21T12:30:37.226Z,22.45
2022-11-21T12:33:17.775Z,21.35
2022-11-21T12:35:53.501Z,21.48
2022-11-21T12:38:45.383Z,22.10
2022-11-21T12:41:46.926Z,23.02
2022-11-21T12:44:25.291Z,24.88
2022-11-21T12:47:24.720Z,23.70
2022-11-21T12:50:52.539Z,24.92
2022-11-21T12:53:51.876Z,24.40
2022-11-21T12:56:41.475Z,25.45
2022-11-21T12:59:11.520Z,26.33
2022-11-21T13:01:55.415Z,26.23
2022-11-21T13:04:28.589Z,29.10
2022-11-21T13:06:57.383Z,27.52
2022-11-21T13:09:27.469Z,28.63
2022-11-21T13:12:05.239Z,26.13
2022-11-21T13:14:49.883Z,28.10
2022-11-21T13:17:28.031Z,25.55
2022-11-21T13:19:59.644Z,25.02
2022-11-21T13:22:38.282Z,25.60
2022-11-21T13:25:41.059Z,25.52
2022-11-21T13:28:13.642Z,21.30
2022-11-21T13:30:56.552Z,24.02
2022-11-21T13:33:35.510Z,26.88
2022-11-21T13:36:24.841Z,25.25
2022-11-21T13:38:51.432Z,24.42
2022-11-21T13:41:54.984Z,25.17
2022-11-21T13:44:33.793Z,24.80
2022-11-21T13:47:09.719Z,26.55
2022-11-21T13:49:44.645Z,25.88
2022-11-21T13:52:51.034Z,23.17
2022-11-21T13:55:35.442Z,24.08
2022-11-21T13:58:11.240Z,23.98
2022-11-21T14:00:59.227Z,23.95
2022-11-21T14:03:25.857Z,23.70
2022-11-21T14:06:10.097Z,24.10
2022-11-21T14:08:36.942Z,26.27
2022-11-21T14:11:28.622Z,22.95
2022-11-21T14:13:55.518Z,23.63
2022-11-21T14:16:36.063Z,22.70
2022-11-21T14:19:04.823Z,22.95
2022-11-21T14:21:32.941Z,23.08
2022-11-21T14:24:05.006Z,21.20
2022-11-21T14:26:38.947Z,20.88
2022-11-21T14:29:26.603Z,24.00
2022-11-21T14:31:53.970Z,22.45
2022-11-21T14:34:29.128Z,20.75
2022-11-21T14:36:59.387Z,19.52
2022-11-21T14:39:38.722Z,20.25
2022-11-21T14:42:14.533Z,19.80
2022-11-21T14:44:41.890Z,21.20
2022-11-21T14:47:25.142Z,22.05
2022-11-21T14:50:00.974Z,21.98
2022-11-21T14:52:32.727Z,22.17
2022-11-21T14:57:52.729Z,23.15
2022-11-21T15:00:57.561Z,23.02
2022-11-21T15:03:19.841Z,26.13
2022-11-21T15:06:01.952Z,26.60
2022-11-21T15:10:05.395Z,25.02
2022-11-21T15:11:36.232Z,30.38
2022-11-21T15:14:16.527Z,29.20
2022-11-21T15:19:34.012Z,32.40
2022-11-21T15:22:04.531Z,24.98
2022-11-21T15:24:42.838Z,35.85
2022-11-21T15:27:28.021Z,24.88
2022-11-21T15:30:10.040Z,27.00
2022-11-21T15:32:58.274Z,28.30
2022-11-21T15:35:47.054Z,25.77
2022-11-21T15:38:24.230Z,24.13
2022-11-21T15:40:56.991Z,26.90
2022-11-21T15:43:34.782Z,29.20
2022-11-21T15:46:03.251Z,27.70
2022-11-21T15:48:30.422Z,28.33
2022-11-21T15:50:58.918Z,30.10
2022-11-21T15:53:25.935Z,34.67
2022-11-21T15:55:52.529Z,19.38
2022-11-21T15:57:15.493Z,27.10
2022-11-21T15:58:19.396Z,20.77
2022-11-21T16:00:46.155Z,27.20
2022-11-21T16:03:12.849Z,23.23
2022-11-21T16:05:39.615Z,28.70
2022-11-21T16:08:06.369Z,30.90
2022-11-21T16:10:33.119Z,28.73
2022-11-21T16:12:59.758Z,29.92
2022-11-21T16:15:26.412Z,28.88
2022-11-21T16:17:53.160Z,19.30
2022-11-21T16:20:19.853Z,27.05
2022-11-21T16:22:47.945Z,25.58
2022-11-21T16:25:15.885Z,33.15
2022-11-21T16:27:42.536Z,29.50
2022-11-21T16:30:09.501Z,34.55
2022-11-21T16:32:36.254Z,27.40
2022-11-21T16:35:03.203Z,32.78
2022-11-21T16:37:32.039Z,37.78
2022-11-21T16:39:58.731Z,35.75
2022-11-21T16:42:25.372Z,32.72
2022-11-21T16:44:52.001Z,33.22
2022-11-21T16:47:18.668Z,28.05
2022-11-21T16:49:48.429Z,28.42
2022-11-21T16:52:15.601Z,31.50
2022-11-21T16:54:42.268Z,31.42
2022-11-21T16:57:09.357Z,31.73
2022-11-21T16:59:36.006Z,32.20
2022-11-21T17:02:02.675Z,32.33
2022-11-21T17:04:29.285Z,33.17
2022-11-21T17:06:56.035Z,38.42
2022-11-21T17:09:22.645Z,23.95
2022-11-21T17:11:49.266Z,47.28
2022-11-21T17:14:15.945Z,43.45
2022-11-21T17:16:42.673Z,44.60
2022-11-21T17:19:12.508Z,35.13
2022-11-21T17:21:39.313Z,28.25
2022-11-21T17:24:06.176Z,24.38
2022-11-21T17:26:36.060Z,24.70
2022-11-21T17:29:05.640Z,28.30
2022-11-21T17:31:32.768Z,21.58
2022-11-21T17:34:00.746Z,26.10
2022-11-21T17:36:29.113Z,26.92
2022-11-21T17:38:56.039Z,24.45
2022-11-21T17:41:24.084Z,24.70
2022-11-21T17:43:55.850Z,21.08
2022-11-21T17:46:23.640Z,21.13
2022-11-21T17:48:55.471Z,18.95
2022-11-21T17:51:30.273Z,17.77
2022-11-21T17:56:48.119Z,16.73
2022-11-21T17:59:18.071Z,16.35
2022-11-21T18:01:46.136Z,17.17
2022-11-21T18:04:15.579Z,14.98
2022-11-21T18:06:42.340Z,15.93
2022-11-21T18:09:12.973Z,16.40
2022-11-21T18:11:40.794Z,15.77
2022-11-21T18:14:10.306Z,14.55
2022-11-21T18:16:39.019Z,14.38
2022-11-21T18:19:05.650Z,13.90
2022-11-21T18:21:35.284Z,14.90
2022-11-21T18:24:02.084Z,14.27
2022-11-21T18:26:34.155Z,14.20
2022-11-21T18:31:49.927Z,14.63
2022-11-21T18:34:16.719Z,14.45
2022-11-21T18:36:43.391Z,13.50
2022-11-21T18:39:14.696Z,13.48
2022-11-21T18:41:42.187Z,13.90
2022-11-21T18:44:09.756Z,13.75
2022-11-21T18:46:38.291Z,13.50
2022-11-21T18:49:06.918Z,13.35
2022-11-21T18:51:34.789Z,15.27
2022-11-21T18:54:05.179Z,15.75
2022-11-21T18:56:32.109Z,14.23
2022-11-21T18:58:59.531Z,13.95
2022-11-21T19:01:28.995Z,13.77
2022-11-21T19:03:56.528Z,15.50
2022-11-21T19:06:24.824Z,14.68
2022-11-21T19:08:53.484Z,12.95
2022-11-21T19:11:21.761Z,14.00
2022-11-21T19:13:48.807Z,14.02
2022-11-21T19:16:17.840Z,11.70
2022-11-21T19:18:54.957Z,13.55
2022-11-21T19:21:27.378Z,11.95
2022-11-21T19:23:56.122Z,13.50
2022-11-21T19:26:22.807Z,12.73
2022-11-21T19:28:49.459Z,14.52
2022-11-21T19:31:17.805Z,12.23
2022-11-21T19:33:45.063Z,12.00
2022-11-21T19:36:17.500Z,11.93
2022-11-21T19:38:50.439Z,11.43
2022-11-21T19:41:20.683Z,11.63
2022-11-21T19:43:49.608Z,10.90
2022-11-21T19:46:18.988Z,11.68
2022-11-21T19:48:49.813Z,10.75
2022-11-21T19:51:17.327Z,10.60
2022-11-21T19:53:44.089Z,10.77
2022-11-21T19:56:16.660Z,10.88
2022-11-21T19:58:44.165Z,11.20
2022-11-21T20:01:19.751Z,10.45
2022-11-21T20:03:49.397Z,10.10
2022-11-21T20:06:25.730Z,10.48
2022-11-21T20:08:57.716Z,10.02
2022-11-21T20:11:25.709Z,11.20
2022-11-21T20:13:52.592Z,11.55
2022-11-21T20:16:24.830Z,9.98
2022-11-21T20:18:52.512Z,9.95
2022-11-21T20:21:19.614Z,9.77
2022-11-21T20:23:47.305Z,9.32
2022-11-21T20:26:15.193Z,9.57
2022-11-21T20:28:42.143Z,10.35
2022-11-21T20:31:12.262Z,10.43
2022-11-21T20:33:41.666Z,10.15
2022-11-21T20:36:18.484Z,10.45
2022-11-21T20:38:50.624Z,10.10
2022-11-21T20:41:18.241Z,15.02
2022-11-21T20:44:32.376Z,14.52
2022-11-21T20:46:32.143Z,15.02
2022-11-21T20:48:58.765Z,11.45
2022-11-21T20:54:12.307Z,9.18
2022-11-21T20:56:42.532Z,9.30
2022-11-21T20:59:10.973Z,9.05
2022-11-21T21:01:37.807Z,9.45
2022-11-21T21:04:04.595Z,9.02
2022-11-21T21:06:31.512Z,8.45
2022-11-21T21:08:58.164Z,8.48
2022-11-21T21:14:11.976Z,8.55
2022-11-21T21:16:38.652Z,8.35
2022-11-21T21:19:05.371Z,8.63
2022-11-21T21:21:32.043Z,9.02
2022-11-21T21:24:04.799Z,9.32
2022-11-21T21:26:42.248Z,8.95
2022-11-21T21:29:11.650Z,9.25
2022-11-21T21:31:38.275Z,10.30
2022-11-21T21:34:04.958Z,9.38
2022-11-21T21:36:32.373Z,9.23
2022-11-21T21:39:00.318Z,8.77
2022-11-21T21:41:29.162Z,9.32
2022-11-21T21:43:57.151Z,8.70
2022-11-21T21:46:26.072Z,8.45
2022-11-21T21:48:55.794Z,9.75
2022-11-21T21:51:23.636Z,8.55
2022-11-21T21:53:51.673Z,8.38
2022-11-21T21:56:20.776Z,8.23
2022-11-21T21:58:48.714Z,8.90
2022-11-21T22:01:23.424Z,8.63
2022-11-21T22:03:53.674Z,8.25
2022-11-21T22:06:20.631Z,9.63
2022-11-21T22:08:48.444Z,8.57
2022-11-21T22:11:18.006Z,8.68
2022-11-21T22:13:47.031Z,9.75
2022-11-21T22:16:14.682Z,9.40
2022-11-21T22:18:41.595Z,9.13
2022-11-21T22:21:27.685Z,8.68
2022-11-21T22:24:23.738Z,9.45
2022-11-21T22:26:42.712Z,8.48
2022-11-21T22:29:09.338Z,9.70
2022-11-21T22:31:36.030Z,8.00
2022-11-21T22:34:02.966Z,9.85
2022-11-21T22:36:29.732Z,8.88
2022-11-21T22:38:56.785Z,8.25
2022-11-21T22:41:25.713Z,8.63
2022-11-21T22:43:59.509Z,8.80
2022-11-21T22:46:28.039Z,8.70
2022-11-21T22:48:55.312Z,8.85
2022-11-21T22:51:29.206Z,9.68
2022-11-21T22:53:56.629Z,8.45
2022-11-21T22:56:24.731Z,9.45
2022-11-21T22:58:51.876Z,8.65
2022-11-21T23:01:20.732Z,9.63
2022-11-21T23:03:47.872Z,9.85
2022-11-21T23:06:19.780Z,9.27
2022-11-21T23:08:47.008Z,9.27
2022-11-21T23:11:19.629Z,9.02
2022-11-21T23:13:47.520Z,9.02
2022-11-21T23:16:15.416Z,9.73
2022-11-21T23:18:42.586Z,8.88
2022-11-21T23:21:10.659Z,9.48
2022-11-21T23:23:37.651Z,8.85
2022-11-21T23:26:05.207Z,8.98
2022-11-21T23:28:32.657Z,9.55
2022-11-21T23:30:59.700Z,9.23
2022-11-21T23:33:26.383Z,9.38
2022-11-21T23:35:53.072Z,10.70
2022-11-21T23:38:20.121Z,9.48
2022-11-21T23:40:48.176Z,9.18
2022-11-21T23:43:16.107Z,10.25
2022-11-21T23:45:43.740Z,8.68
2022-11-21T23:48:10.685Z,10.18
2022-11-21T23:50:37.605Z,10.18
2022-11-21T23:53:04.228Z,9.40
2022-11-21T23:55:30.916Z,8.38
2022-11-21T23:57:57.599Z,8.93
